createdAt,value
2023-05-05T00:02:18.018Z,101955.92
2023-05-05T00:04:46.146Z,101953.61
2023-05-05T00:07:14.091Z,101955.20
2023-05-05T00:09:42.972Z,101949.70
2023-05-05T00:12:11.053Z,101945.25
2023-05-05T00:14:38.987Z,101951.48
2023-05-05T00:17:06.942Z,101956.64
2023-05-05T00:19:34.900Z,101953.98
2023-05-05T00:22:02.923Z,101947.33
2023-05-05T00:24:31.001Z,101942.61
2023-05-05T00:26:58.963Z,101943.41
2023-05-05T00:29:26.918Z,101944.47
2023-05-05T00:31:54.905Z,101947.80
2023-05-05T00:34:22.936Z,101952.52
2023-05-05T00:36:50.874Z,101953.30
2023-05-05T00:39:18.875Z,101956.23
2023-05-05T00:41:46.840Z,101957.89
2023-05-05T00:44:15.062Z,101961.38
2023-05-05T00:46:43.284Z,101960.73
2023-05-05T00:49:12.498Z,101959.39
2023-05-05T00:51:40.511Z,101961.25
2023-05-05T00:54:08.769Z,101961.05
2023-05-05T00:56:36.798Z,101960.98
2023-05-05T00:59:04.808Z,101958.88
2023-05-05T01:01:32.851Z,101952.70
2023-05-05T01:04:01.533Z,101953.10
2023-05-05T01:06:54.689Z,101952.00
2023-05-05T01:09:24.924Z,101957.79
2023-05-05T01:12:05.161Z,101963.31
2023-05-05T01:14:43.343Z,101966.04
2023-05-05T01:17:17.315Z,101970.70
2023-05-05T01:19:52.568Z,101968.13
2023-05-05T01:22:23.370Z,101966.14
2023-05-05T01:25:06.579Z,101965.69
2023-05-05T01:28:11.413Z,101963.15
2023-05-05T01:31:01.762Z,101962.13
2023-05-05T01:33:34.688Z,101964.30
2023-05-05T01:36:07.193Z,101964.77
2023-05-05T01:38:40.449Z,101959.36
2023-05-05T01:41:18.956Z,101962.02
2023-05-05T01:43:48.726Z,101960.45
2023-05-05T01:46:16.957Z,101958.86
2023-05-05T01:48:45.000Z,101957.19
2023-05-05T01:51:12.974Z,101962.30
2023-05-05T01:53:41.621Z,101959.83
2023-05-05T01:56:10.343Z,101958.36
2023-05-05T01:58:38.440Z,101959.53
2023-05-05T02:01:06.439Z,101964.33
2023-05-05T02:03:34.506Z,101966.08
2023-05-05T02:06:02.494Z,101966.07
2023-05-05T02:08:30.465Z,101967.26
2023-05-05T02:10:58.449Z,101972.16
2023-05-05T02:13:26.530Z,101973.48
2023-05-05T02:15:54.698Z,101969.04
2023-05-05T02:18:23.077Z,101965.70
2023-05-05T02:20:53.204Z,101967.80
2023-05-05T02:23:21.492Z,101967.08
2023-05-05T02:25:50.630Z,101965.47
2023-05-05T02:28:21.338Z,101964.81
2023-05-05T02:30:54.513Z,101967.20
2023-05-05T02:33:22.483Z,101963.51
2023-05-05T02:35:51.120Z,101962.52
2023-05-05T02:38:19.185Z,101962.59
2023-05-05T02:40:49.201Z,101958.41
2023-05-05T02:43:19.742Z,101957.92
2023-05-05T02:45:47.879Z,101953.25
2023-05-05T02:48:16.160Z,101953.55
2023-05-05T02:50:44.100Z,101956.66
2023-05-05T02:53:16.518Z,101962.38
2023-05-05T02:55:52.249Z,101958.52
2023-05-05T02:58:27.310Z,101957.50
2023-05-05T03:01:25.860Z,101955.89
2023-05-05T03:04:06.452Z,101948.95
2023-05-05T03:06:39.887Z,101951.34
2023-05-05T03:09:16.098Z,101955.98
2023-05-05T03:11:54.981Z,101956.14
2023-05-05T03:14:23.035Z,101965.39
2023-05-05T03:16:51.400Z,101960.20
2023-05-05T03:19:19.414Z,101963.96
2023-05-05T03:21:48.695Z,101967.92
2023-05-05T03:24:17.836Z,101971.36
2023-05-05T03:26:50.420Z,101971.77
2023-05-05T03:29:20.519Z,101973.58
2023-05-05T03:31:49.028Z,101971.74
2023-05-05T03:34:17.188Z,101971.48
2023-05-05T03:36:47.027Z,101971.74
2023-05-05T03:39:16.154Z,101976.44
2023-05-05T03:41:44.234Z,101973.64
2023-05-05T03:44:12.609Z,101977.84
2023-05-05T03:46:40.554Z,101980.69
2023-05-05T03:49:10.073Z,101984.45
2023-05-05T03:51:38.443Z,101985.84
2023-05-05T03:54:06.512Z,101987.21
2023-05-05T03:56:34.673Z,101984.39
2023-05-05T03:59:02.695Z,101990.86
2023-05-05T04:01:31.800Z,101987.98
2023-05-05T04:04:02.666Z,101988.08
2023-05-05T04:06:31.950Z,101987.44
2023-05-05T04:09:00.029Z,101991.98
2023-05-05T04:11:29.389Z,101987.65
2023-05-05T04:13:58.058Z,101989.45
2023-05-05T04:16:26.466Z,101992.00
2023-05-05T04:18:55.492Z,101995.23
2023-05-05T04:21:24.211Z,101993.96
2023-05-05T04:23:52.919Z,101992.07
2023-05-05T04:26:21.433Z,101992.55
2023-05-05T04:28:51.747Z,101996.13
2023-05-05T04:31:20.191Z,102000.85
2023-05-05T04:33:48.326Z,102004.45
2023-05-05T04:36:16.366Z,102003.60
2023-05-05T04:38:44.533Z,102007.18
2023-05-05T04:41:12.974Z,102007.33
2023-05-05T04:43:41.416Z,102014.89
2023-05-05T04:46:09.504Z,102015.91
2023-05-05T04:48:40.080Z,102022.63
2023-05-05T04:51:08.332Z,102030.27
2023-05-05T04:53:36.721Z,102031.29
2023-05-05T04:56:04.813Z,102032.45
2023-05-05T04:58:34.444Z,102032.64
2023-05-05T05:01:02.368Z,102033.56
2023-05-05T05:03:32.257Z,102041.83
2023-05-05T05:06:00.450Z,102041.70
2023-05-05T05:08:30.584Z,102043.87
2023-05-05T05:10:59.420Z,102043.17
2023-05-05T05:13:27.413Z,102049.64
2023-05-05T05:15:55.372Z,102052.73
2023-05-05T05:18:23.688Z,102055.70
2023-05-05T05:20:52.127Z,102057.77
2023-05-05T05:23:20.234Z,102060.17
2023-05-05T05:25:48.237Z,102062.80
2023-05-05T05:28:16.983Z,102059.59
2023-05-05T05:30:48.871Z,102056.48
2023-05-05T05:33:16.886Z,102065.69
2023-05-05T05:35:47.783Z,102063.44
2023-05-05T05:38:17.667Z,102066.67
2023-05-05T05:40:46.138Z,102066.75
2023-05-05T05:43:14.292Z,102068.98
2023-05-05T05:45:42.289Z,102071.94
2023-05-05T05:48:11.125Z,102070.60
2023-05-05T05:50:39.330Z,102070.52
2023-05-05T05:53:07.341Z,102069.96
2023-05-05T05:55:35.773Z,102071.64
2023-05-05T05:58:03.821Z,102070.23
2023-05-05T06:00:31.862Z,102070.80
2023-05-05T06:03:02.847Z,102070.83
2023-05-05T06:05:32.525Z,102066.96
2023-05-05T06:08:00.607Z,102065.36
2023-05-05T06:10:28.777Z,102069.05
2023-05-05T06:13:06.691Z,102068.46
2023-05-05T06:15:35.626Z,102070.39
2023-05-05T06:18:04.414Z,102078.58
2023-05-05T06:20:32.430Z,102079.08
2023-05-05T06:23:00.569Z,102081.77
2023-05-05T06:25:29.659Z,102087.11
2023-05-05T06:27:57.821Z,102091.25
2023-05-05T06:30:26.372Z,102093.33
2023-05-05T06:32:54.428Z,102089.77
2023-05-05T06:35:22.541Z,102094.52
2023-05-05T06:37:50.516Z,102097.55
2023-05-05T06:40:18.596Z,102094.86
2023-05-05T06:42:46.512Z,102093.60
2023-05-05T06:45:17.889Z,102095.44
2023-05-05T06:47:45.974Z,102093.08
2023-05-05T06:50:13.994Z,102098.50
2023-05-05T06:52:41.902Z,102098.45
2023-05-05T06:55:10.035Z,102099.52
2023-05-05T06:57:38.078Z,102102.66
2023-05-05T07:00:09.826Z,102098.45
2023-05-05T07:02:38.850Z,102099.56
2023-05-05T07:05:07.478Z,102096.63
2023-05-05T07:07:36.473Z,102099.32
2023-05-05T07:10:05.102Z,102099.14
2023-05-05T07:12:33.204Z,102101.04
2023-05-05T07:15:07.048Z,102098.23
2023-05-05T07:17:43.841Z,102102.55
2023-05-05T07:20:12.336Z,102102.38
2023-05-05T07:22:40.499Z,102103.75
2023-05-05T07:25:08.739Z,102102.69
2023-05-05T07:27:37.342Z,102099.91
2023-05-05T07:30:11.138Z,102101.65
2023-05-05T07:32:41.428Z,102103.59
2023-05-05T07:35:09.477Z,102104.61
2023-05-05T07:37:37.488Z,102105.09
2023-05-05T07:40:06.331Z,102103.20
2023-05-05T07:42:34.505Z,102101.20
2023-05-05T07:45:02.591Z,102099.49
2023-05-05T07:47:30.648Z,102097.19
2023-05-05T07:49:58.741Z,102103.98
2023-05-05T07:52:43.730Z,102102.56
2023-05-05T07:55:14.482Z,102107.08
2023-05-05T07:57:42.467Z,102109.53
2023-05-05T08:00:11.422Z,102110.05
2023-05-05T08:02:42.580Z,102107.55
2023-05-05T08:05:11.688Z,102113.22
2023-05-05T08:07:41.653Z,102113.17
2023-05-05T08:10:12.202Z,102112.63
2023-05-05T08:12:40.653Z,102112.95
2023-05-05T08:15:09.291Z,102115.52
2023-05-05T08:17:47.831Z,102114.23
2023-05-05T08:20:16.615Z,102115.71
2023-05-05T08:22:45.331Z,102118.52
2023-05-05T08:25:13.607Z,102112.17
2023-05-05T08:27:42.590Z,102119.44
2023-05-05T08:30:11.247Z,102119.95
2023-05-05T08:32:39.209Z,102123.38
2023-05-05T08:35:08.310Z,102124.23
2023-05-05T08:37:36.793Z,102121.11
2023-05-05T08:40:05.586Z,102126.59
2023-05-05T08:42:38.690Z,102131.20
2023-05-05T08:45:08.795Z,102124.30
2023-05-05T08:47:37.502Z,102127.76
2023-05-05T08:50:06.337Z,102126.77
2023-05-05T08:52:44.897Z,102127.27
2023-05-05T08:55:15.716Z,102125.63
2023-05-05T08:57:51.751Z,102130.55
2023-05-05T09:00:20.050Z,102133.63
2023-05-05T09:02:48.604Z,102133.60
2023-05-05T09:05:16.925Z,102135.62
2023-05-05T09:07:45.024Z,102135.92
2023-05-05T09:10:13.117Z,102138.17
2023-05-05T09:12:41.424Z,102142.51
2023-05-05T09:17:59.380Z,102136.17
2023-05-05T09:20:35.372Z,102132.61
2023-05-05T09:23:11.337Z,102133.64
2023-05-05T09:25:40.041Z,102129.61
2023-05-05T09:28:12.206Z,102132.59
2023-05-05T09:30:41.236Z,102128.45
2023-05-05T09:33:09.455Z,102131.46
2023-05-05T09:35:56.194Z,102130.77
2023-05-05T09:38:24.750Z,102129.67
2023-05-05T09:40:53.373Z,102132.15
2023-05-05T09:43:22.183Z,102135.10
2023-05-05T09:45:50.527Z,102132.98
2023-05-05T09:48:26.445Z,102133.45
2023-05-05T09:50:55.026Z,102128.97
2023-05-05T09:53:23.827Z,102127.57
2023-05-05T09:55:59.451Z,102127.82
2023-05-05T09:58:28.845Z,102131.59
2023-05-05T10:00:58.073Z,102134.24
2023-05-05T10:03:26.394Z,102131.66
2023-05-05T10:05:59.741Z,102126.58
2023-05-05T10:08:29.530Z,102130.79
2023-05-05T10:11:07.365Z,102128.83
2023-05-05T10:13:41.093Z,102131.97
2023-05-05T10:16:09.763Z,102127.67
2023-05-05T10:18:38.031Z,102126.63
2023-05-05T10:21:06.490Z,102129.81
2023-05-05T10:23:34.601Z,102127.20
2023-05-05T10:26:05.604Z,102116.63
2023-05-05T10:28:34.570Z,102122.27
2023-05-05T10:31:07.634Z,102119.44
2023-05-05T10:33:45.428Z,102121.05
2023-05-05T10:36:14.259Z,102113.94
2023-05-05T10:38:42.230Z,102113.05
2023-05-05T10:41:10.146Z,102114.19
2023-05-05T10:43:38.531Z,102110.20
2023-05-05T10:46:06.589Z,102109.14
2023-05-05T10:48:37.439Z,102107.75
2023-05-05T10:51:12.140Z,102100.84
2023-05-05T10:53:44.840Z,102104.34
2023-05-05T10:56:32.705Z,102102.79
2023-05-05T10:59:01.106Z,102099.14
2023-05-05T11:01:33.078Z,102097.10
2023-05-05T11:04:18.157Z,102086.66
2023-05-05T11:07:08.011Z,102088.88
2023-05-05T11:09:38.861Z,102078.10
2023-05-05T11:12:07.164Z,102079.52
2023-05-05T11:14:35.568Z,102084.02
2023-05-05T11:17:03.695Z,102085.42
2023-05-05T11:19:43.734Z,102081.48
2023-05-05T11:22:11.804Z,102085.36
2023-05-05T11:24:42.759Z,102080.48
2023-05-05T11:27:11.619Z,102078.60
2023-05-05T11:30:13.920Z,102071.55
2023-05-05T11:32:42.139Z,102066.95
2023-05-05T11:35:10.068Z,102064.83
2023-05-05T11:37:38.100Z,102060.95
2023-05-05T11:40:32.585Z,102063.94
2023-05-05T11:43:07.476Z,102064.14
2023-05-05T11:45:36.076Z,102059.04
2023-05-05T11:48:28.981Z,102067.26
2023-05-05T11:50:58.116Z,102060.61
2023-05-05T11:53:26.126Z,102058.55
2023-05-05T11:56:09.820Z,102055.87
2023-05-05T11:58:38.285Z,102050.28
2023-05-05T12:01:09.527Z,102052.39
2023-05-05T12:03:38.018Z,102046.72
2023-05-05T12:06:07.097Z,102049.16
2023-05-05T12:08:39.016Z,102049.02
2023-05-05T12:11:08.273Z,102042.81
2023-05-05T12:13:36.495Z,102041.65
2023-05-05T12:16:11.652Z,102045.91
2023-05-05T12:18:40.245Z,102039.31
2023-05-05T12:21:20.718Z,102035.89
2023-05-05T12:23:48.725Z,102027.52
2023-05-05T12:26:29.170Z,102027.95
2023-05-05T12:29:00.591Z,102035.03
2023-05-05T12:31:38.412Z,102028.95
2023-05-05T12:34:06.999Z,102028.61
2023-05-05T12:36:35.763Z,102027.87
2023-05-05T12:39:07.245Z,102021.32
2023-05-05T12:41:35.240Z,102018.02
2023-05-05T12:44:03.375Z,102023.59
2023-05-05T12:46:32.025Z,102016.98
2023-05-05T12:49:05.495Z,102017.41
2023-05-05T12:51:36.829Z,102010.68
2023-05-05T12:54:09.692Z,102016.11
2023-05-05T12:56:37.744Z,102008.60
2023-05-05T12:59:06.879Z,102011.80
2023-05-05T13:01:35.876Z,102011.05
2023-05-05T13:04:07.929Z,102013.15
2023-05-05T13:06:36.266Z,102010.89
2023-05-05T13:09:05.406Z,102001.83
2023-05-05T13:11:37.683Z,101999.13
2023-05-05T13:14:06.603Z,101997.30
2023-05-05T13:16:34.824Z,101998.88
2023-05-05T13:19:02.867Z,101999.95
2023-05-05T13:21:30.883Z,101999.19
2023-05-05T13:24:08.207Z,101998.73
2023-05-05T13:26:40.758Z,101993.28
2023-05-05T13:29:08.724Z,101989.64
2023-05-05T13:31:36.944Z,101988.20
2023-05-05T13:34:05.328Z,101984.02
2023-05-05T13:36:33.408Z,101983.81
2023-05-05T13:39:01.808Z,101987.02
2023-05-05T13:41:29.999Z,101991.04
2023-05-05T13:43:57.896Z,101992.38
2023-05-05T13:46:26.143Z,101991.61
2023-05-05T13:48:56.659Z,101989.61
2023-05-05T13:51:24.985Z,101983.40
2023-05-05T13:53:53.211Z,101974.86
2023-05-05T13:56:23.530Z,101972.52
2023-05-05T13:58:52.049Z,101971.65
2023-05-05T14:01:20.256Z,101965.96
2023-05-05T14:03:48.389Z,101967.58
2023-05-05T14:06:16.559Z,101967.92
2023-05-05T14:08:44.753Z,101976.94
2023-05-05T14:11:18.150Z,101975.88
2023-05-05T14:13:46.636Z,101974.66
2023-05-05T14:16:14.837Z,101974.38
2023-05-05T14:18:43.137Z,101968.89
2023-05-05T14:21:11.369Z,101972.31
2023-05-05T14:23:39.376Z,101970.08
2023-05-05T14:26:09.081Z,101968.06
2023-05-05T14:28:37.335Z,101969.39
2023-05-05T14:31:05.479Z,101965.77
2023-05-05T14:33:33.535Z,101962.16
2023-05-05T14:36:01.681Z,101969.16
2023-05-05T14:38:29.814Z,101966.23
2023-05-05T14:40:57.810Z,101966.41
2023-05-05T14:43:25.816Z,101962.56
2023-05-05T14:45:53.893Z,101963.58
2023-05-05T14:48:22.473Z,101962.30
2023-05-05T14:50:50.892Z,101960.94
2023-05-05T14:53:21.452Z,101959.41
2023-05-05T14:55:49.591Z,101964.27
2023-05-05T14:58:22.323Z,101966.27
2023-05-05T15:00:52.726Z,101966.48
2023-05-05T15:03:20.908Z,101963.91
2023-05-05T15:05:49.211Z,101963.25
2023-05-05T15:08:18.880Z,101962.98
2023-05-05T15:10:47.032Z,101960.30
2023-05-05T15:13:15.329Z,101957.96
2023-05-05T15:15:43.561Z,101957.46
2023-05-05T15:18:11.789Z,101956.91
2023-05-05T15:20:39.686Z,101958.75
2023-05-05T15:23:07.673Z,101958.79
2023-05-05T15:25:35.769Z,101956.63
2023-05-05T15:28:03.809Z,101958.77
2023-05-05T15:30:31.847Z,101963.61
2023-05-05T15:32:59.839Z,101964.64
2023-05-05T15:35:27.856Z,101972.59
2023-05-05T15:37:56.012Z,101972.55
2023-05-05T15:40:24.234Z,101966.71
2023-05-05T15:42:52.662Z,101969.20
2023-05-05T15:45:20.707Z,101956.77
2023-05-05T15:47:50.172Z,101957.09
2023-05-05T15:50:18.386Z,101961.09
2023-05-05T15:52:48.150Z,101953.91
2023-05-05T15:55:17.895Z,101957.77
2023-05-05T15:57:46.126Z,101962.79
2023-05-05T16:00:14.630Z,101964.77
2023-05-05T16:02:42.704Z,101966.95
2023-05-05T16:05:11.265Z,101976.82
2023-05-05T16:07:39.268Z,101966.58
2023-05-05T16:10:08.316Z,101964.45
2023-05-05T16:12:36.673Z,101964.33
2023-05-05T16:15:05.138Z,101964.40
2023-05-05T16:17:33.156Z,101968.61
2023-05-05T16:20:01.408Z,101953.98
2023-05-05T16:22:29.519Z,101957.70
2023-05-05T16:24:57.540Z,101959.77
2023-05-05T16:27:26.617Z,101955.79
2023-05-05T16:29:54.656Z,101961.84
2023-05-05T16:32:22.825Z,101964.98
2023-05-05T16:34:50.843Z,101967.27
2023-05-05T16:37:19.084Z,101961.16
2023-05-05T16:39:47.380Z,101962.24
2023-05-05T16:42:15.290Z,101964.34
2023-05-05T16:44:43.247Z,101964.11
2023-05-05T16:47:11.259Z,101970.64
2023-05-05T16:49:39.241Z,101964.55
2023-05-05T16:52:07.195Z,101964.53
2023-05-05T16:54:35.217Z,101972.77
2023-05-05T16:57:03.896Z,101973.27
2023-05-05T16:59:31.869Z,101975.61
2023-05-05T17:01:59.888Z,101982.00
2023-05-05T17:04:27.951Z,101982.23
2023-05-05T17:06:57.623Z,101988.09
2023-05-05T17:09:25.831Z,101985.50
2023-05-05T17:11:53.903Z,101989.34
2023-05-05T17:14:21.866Z,101986.98
2023-05-05T17:16:50.215Z,101988.79
2023-05-05T17:19:18.238Z,101991.51
2023-05-05T17:21:46.356Z,101993.69
2023-05-05T17:24:15.274Z,101992.77
2023-05-05T17:26:43.508Z,101992.96
2023-05-05T17:29:13.071Z,101998.88
2023-05-05T17:31:42.154Z,101997.70
2023-05-05T17:34:10.570Z,101997.27
2023-05-05T17:36:38.621Z,101997.91
2023-05-05T17:39:06.619Z,102000.73
2023-05-05T17:41:34.737Z,102000.00
2023-05-05T17:44:02.797Z,101995.42
2023-05-05T17:46:30.902Z,102001.04
2023-05-05T17:48:59.170Z,102005.77
2023-05-05T17:51:27.529Z,102008.35
2023-05-05T17:53:55.502Z,102005.95
2023-05-05T17:56:23.448Z,102008.52
2023-05-05T17:58:51.448Z,102009.42
2023-05-05T18:01:26.468Z,102008.84
2023-05-05T18:03:54.913Z,102009.21
2023-05-05T18:06:22.942Z,102010.17
2023-05-05T18:08:50.947Z,102010.48
2023-05-05T18:11:21.288Z,102013.23
2023-05-05T18:13:49.412Z,102006.63
2023-05-05T18:16:17.469Z,102015.23
2023-05-05T18:18:45.738Z,102012.82
2023-05-05T18:21:13.867Z,102015.02
2023-05-05T18:23:42.036Z,102020.39
2023-05-05T18:26:10.193Z,102022.42
2023-05-05T18:28:38.213Z,102021.62
2023-05-05T18:31:06.829Z,102027.83
2023-05-05T18:33:35.547Z,102024.82
2023-05-05T18:36:04.011Z,102032.58
2023-05-05T18:38:32.535Z,102035.08
2023-05-05T18:41:00.705Z,102040.02
2023-05-05T18:43:28.760Z,102039.75
2023-05-05T18:45:56.819Z,102040.81
2023-05-05T18:48:24.882Z,102043.34
2023-05-05T18:50:53.041Z,102044.08
2023-05-05T18:53:21.146Z,102040.44
2023-05-05T18:55:49.464Z,102041.64
2023-05-05T18:58:17.744Z,102045.39
2023-05-05T19:00:45.766Z,102047.39
2023-05-05T19:03:14.072Z,102044.83
2023-05-05T19:05:42.137Z,102048.85
2023-05-05T19:08:10.288Z,102048.46
2023-05-05T19:10:38.220Z,102045.84
2023-05-05T19:13:06.748Z,102044.46
2023-05-05T19:15:35.409Z,102042.82
2023-05-05T19:18:06.438Z,102046.46
2023-05-05T19:20:34.534Z,102051.52
2023-05-05T19:23:04.498Z,102048.66
2023-05-05T19:25:32.555Z,102053.16
2023-05-05T19:28:00.833Z,102053.64
2023-05-05T19:30:28.865Z,102059.79
2023-05-05T19:32:57.164Z,102058.60
2023-05-05T19:35:26.103Z,102057.64
2023-05-05T19:37:54.012Z,102053.30
2023-05-05T19:40:22.110Z,102052.37
2023-05-05T19:42:50.329Z,102051.91
2023-05-05T19:45:18.397Z,102055.37
2023-05-05T19:47:46.554Z,102054.02
2023-05-05T19:50:16.133Z,102051.80
2023-05-05T19:52:44.256Z,102054.09
2023-05-05T19:55:13.353Z,102051.74
2023-05-05T19:57:41.864Z,102049.84
2023-05-05T20:00:11.225Z,102052.71
2023-05-05T20:02:39.509Z,102048.11
2023-05-05T20:05:07.920Z,102046.94
2023-05-05T20:07:35.869Z,102043.56
2023-05-05T20:10:04.510Z,102039.66
2023-05-05T20:12:32.529Z,102041.11
2023-05-05T20:15:00.670Z,102039.52
2023-05-05T20:17:29.543Z,102040.02
2023-05-05T20:19:58.090Z,102039.48
2023-05-05T20:22:26.646Z,102041.45
2023-05-05T20:24:54.736Z,102042.31
2023-05-05T20:27:22.787Z,102040.04
2023-05-05T20:29:50.705Z,102037.27
2023-05-05T20:32:20.814Z,102035.80
2023-05-05T20:34:49.261Z,102036.83
2023-05-05T20:37:17.294Z,102042.33
2023-05-05T20:39:45.412Z,102040.25
2023-05-05T20:42:13.899Z,102036.45
2023-05-05T20:44:42.364Z,102036.36
2023-05-05T20:47:14.427Z,102034.10
2023-05-05T20:49:42.510Z,102032.26
2023-05-05T20:52:10.675Z,102031.30
2023-05-05T20:54:39.469Z,102027.70
2023-05-05T20:57:07.983Z,102027.70
2023-05-05T20:59:36.243Z,102022.38
2023-05-05T21:02:05.881Z,102021.44
2023-05-05T21:04:34.029Z,102022.97
2023-05-05T21:07:02.019Z,102019.64
2023-05-05T21:09:30.114Z,102026.26
2023-05-05T21:11:58.135Z,102028.92
2023-05-05T21:14:27.803Z,102029.98
2023-05-05T21:16:56.122Z,102033.64
2023-05-05T21:19:24.438Z,102032.83
2023-05-05T21:21:54.151Z,102024.23
2023-05-05T21:24:22.263Z,102023.80
2023-05-05T21:26:51.517Z,102028.27
2023-05-05T21:29:19.683Z,102032.36
2023-05-05T21:31:47.653Z,102033.64
2023-05-05T21:34:15.677Z,102033.16
2023-05-05T21:36:43.669Z,102029.15
2023-05-05T21:39:12.240Z,102031.99
2023-05-05T21:41:40.627Z,102037.20
2023-05-05T21:44:09.723Z,102034.96
2023-05-05T21:46:38.872Z,102029.97
2023-05-05T21:49:14.379Z,102032.59
2023-05-05T21:51:42.562Z,102026.27
2023-05-05T21:54:10.742Z,102031.05
2023-05-05T21:56:38.703Z,102024.45
2023-05-05T21:59:06.686Z,102031.84
2023-05-05T22:01:35.107Z,102027.68
2023-05-05T22:04:06.229Z,102023.23
2023-05-05T22:06:34.317Z,102027.82
2023-05-05T22:09:02.213Z,102025.47
2023-05-05T22:11:30.098Z,102024.80
2023-05-05T22:13:58.496Z,102027.98
2023-05-05T22:16:26.505Z,102021.81
2023-05-05T22:18:54.479Z,102018.54
2023-05-05T22:21:22.438Z,102015.73
2023-05-05T22:23:50.449Z,102009.30
2023-05-05T22:26:18.425Z,102012.33
2023-05-05T22:28:46.301Z,102007.64
2023-05-05T22:31:14.242Z,102002.83
2023-05-05T22:33:42.298Z,102001.33
2023-05-05T22:36:11.573Z,101995.73
2023-05-05T22:38:39.542Z,101993.62
2023-05-05T22:41:08.257Z,101989.95
2023-05-05T22:43:37.475Z,101990.95
2023-05-05T22:46:05.844Z,101990.88
2023-05-05T22:48:34.106Z,101986.27
2023-05-05T22:51:03.774Z,101988.19
2023-05-05T22:53:32.006Z,101988.71
2023-05-05T22:56:01.112Z,101982.69
2023-05-05T22:58:29.305Z,101982.41
2023-05-05T23:00:58.439Z,101980.81
2023-05-05T23:03:26.756Z,101977.68
2023-05-05T23:05:54.852Z,101977.40
2023-05-05T23:08:24.114Z,101978.11
2023-05-05T23:10:53.418Z,101980.72
2023-05-05T23:13:21.457Z,101979.70
2023-05-05T23:15:49.416Z,101983.86
2023-05-05T23:18:17.332Z,101988.02
2023-05-05T23:20:45.621Z,101990.34
2023-05-05T23:23:13.688Z,101987.86
2023-05-05T23:25:41.637Z,101982.13
2023-05-05T23:28:10.153Z,101978.80
2023-05-05T23:30:38.130Z,101981.50
2023-05-05T23:33:06.330Z,101983.62
2023-05-05T23:35:34.321Z,101983.91
2023-05-05T23:38:02.281Z,101988.55
2023-05-05T23:40:30.362Z,101990.13
2023-05-05T23:42:58.888Z,101983.80
2023-05-05T23:45:26.900Z,101981.11
2023-05-05T23:47:55.163Z,101981.90
2023-05-05T23:50:23.207Z,101982.35
2023-05-05T23:52:51.516Z,101981.92
2023-05-05T23:55:19.564Z,101982.69
2023-05-05T23:57:47.521Z,101978.29
